createdAt,value
2022-12-20T00:01:01.947Z,32.40
2022-12-20T00:03:29.934Z,32.40
2022-12-20T00:05:59.387Z,27.83
2022-12-20T00:08:27.179Z,28.67
2022-12-20T00:10:54.994Z,29.43
2022-12-20T00:13:22.771Z,28.23
2022-12-20T00:15:50.651Z,28.20
2022-12-20T00:18:19.505Z,25.70
2022-12-20T00:20:47.313Z,26.57
2022-12-20T00:23:16.599Z,27.90
2022-12-20T00:25:44.665Z,32.30
2022-12-20T00:28:12.495Z,28.50
2022-12-20T00:30:40.261Z,30.40
2022-12-20T00:33:08.049Z,28.50
2022-12-20T00:35:35.910Z,28.90
2022-12-20T00:38:03.713Z,24.73
2022-12-20T00:40:32.808Z,29.20
2022-12-20T00:43:00.573Z,27.13
2022-12-20T00:45:28.432Z,31.73
2022-12-20T00:47:56.289Z,29.83
2022-12-20T00:50:24.147Z,27.63
2022-12-20T00:52:52.159Z,33.40
2022-12-20T00:55:20.025Z,30.43
2022-12-20T00:57:49.202Z,33.87
2022-12-20T01:00:17.667Z,36.90
2022-12-20T01:02:45.631Z,26.03
2022-12-20T01:05:13.537Z,28.77
2022-12-20T01:07:41.377Z,29.87
2022-12-20T01:10:10.392Z,26.00
2022-12-20T01:12:38.265Z,25.60
2022-12-20T01:15:08.955Z,30.37
2022-12-20T01:17:38.377Z,24.87
2022-12-20T01:20:07.947Z,27.10
2022-12-20T01:22:35.967Z,22.50
2022-12-20T01:25:03.806Z,24.70
2022-12-20T01:27:31.806Z,25.80
2022-12-20T01:29:59.734Z,27.83
2022-12-20T01:32:28.858Z,26.73
2022-12-20T01:34:56.681Z,26.80
2022-12-20T01:37:24.510Z,25.53
2022-12-20T01:39:52.440Z,27.80
2022-12-20T01:42:20.282Z,25.20
2022-12-20T01:44:55.957Z,25.33
2022-12-20T01:47:25.531Z,29.73
2022-12-20T01:49:56.819Z,29.80
2022-12-20T01:52:31.256Z,21.83
2022-12-20T01:55:06.557Z,28.30
2022-12-20T01:57:41.294Z,27.57
2022-12-20T02:00:10.868Z,27.33
2022-12-20T02:02:42.306Z,25.50
2022-12-20T02:05:14.566Z,22.77
2022-12-20T02:07:49.429Z,25.50
2022-12-20T02:10:19.200Z,26.23
2022-12-20T02:12:49.356Z,26.10
2022-12-20T02:15:36.541Z,25.17
2022-12-20T02:18:17.365Z,22.50
2022-12-20T02:21:02.390Z,26.73
2022-12-20T02:23:55.860Z,29.60
2022-12-20T02:26:51.271Z,25.37
2022-12-20T02:29:26.479Z,29.50
2022-12-20T02:32:03.594Z,27.87
2022-12-20T02:34:34.755Z,24.40
2022-12-20T02:37:02.833Z,19.87
2022-12-20T02:39:33.651Z,28.03
2022-12-20T02:42:06.584Z,26.20
2022-12-20T02:44:56.348Z,22.50
2022-12-20T02:47:30.747Z,22.87
2022-12-20T02:49:59.157Z,25.93
2022-12-20T02:52:31.082Z,24.00
2022-12-20T02:55:00.846Z,25.90
2022-12-20T02:57:39.044Z,25.13
2022-12-20T03:00:11.625Z,25.20
2022-12-20T03:02:56.887Z,27.90
2022-12-20T03:05:27.645Z,26.30
2022-12-20T03:07:57.104Z,27.73
2022-12-20T03:10:27.044Z,25.03
2022-12-20T03:12:54.977Z,24.53
2022-12-20T03:15:23.163Z,29.97
2022-12-20T03:17:57.539Z,28.03
2022-12-20T03:20:25.927Z,26.20
2022-12-20T03:22:53.725Z,24.80
2022-12-20T03:25:21.588Z,26.90
2022-12-20T03:27:49.482Z,25.27
2022-12-20T03:30:18.564Z,23.37
2022-12-20T03:32:46.413Z,20.80
2022-12-20T03:35:15.608Z,25.57
2022-12-20T03:37:43.590Z,21.13
2022-12-20T03:40:13.881Z,23.33
2022-12-20T03:42:41.755Z,19.33
2022-12-20T03:45:10.457Z,20.83
2022-12-20T03:47:38.723Z,24.90
2022-12-20T03:50:08.467Z,23.23
2022-12-20T03:52:38.233Z,20.90
2022-12-20T03:55:07.237Z,25.00
2022-12-20T03:57:42.981Z,24.33
2022-12-20T04:00:26.111Z,23.60
2022-12-20T04:03:00.988Z,23.67
2022-12-20T04:05:30.381Z,25.97
2022-12-20T04:07:59.941Z,25.77
2022-12-20T04:10:27.830Z,23.70
2022-12-20T04:12:55.845Z,22.40
2022-12-20T04:15:23.911Z,22.47
2022-12-20T04:17:53.853Z,22.43
2022-12-20T04:20:22.170Z,22.70
2022-12-20T04:23:00.106Z,23.90
2022-12-20T04:25:28.447Z,21.00
2022-12-20T04:27:56.886Z,23.13
2022-12-20T04:30:25.765Z,25.43
2022-12-20T04:32:54.744Z,23.13
2022-12-20T04:35:22.945Z,28.30
2022-12-20T04:37:50.922Z,25.27
2022-12-20T04:40:20.892Z,28.57
2022-12-20T04:42:52.948Z,19.70
2022-12-20T04:45:21.358Z,21.30
2022-12-20T04:47:50.582Z,19.53
2022-12-20T04:50:24.354Z,20.70
2022-12-20T04:53:09.738Z,19.80
2022-12-20T04:55:40.484Z,20.40
2022-12-20T04:58:08.942Z,24.87
2022-12-20T05:00:40.307Z,24.63
2022-12-20T05:03:21.827Z,18.20
2022-12-20T05:05:49.878Z,26.23
2022-12-20T05:08:18.370Z,22.90
2022-12-20T05:10:49.217Z,24.67
2022-12-20T05:13:17.766Z,26.13
2022-12-20T05:15:52.276Z,19.93
2022-12-20T05:18:25.019Z,20.70
2022-12-20T05:21:17.606Z,20.90
2022-12-20T05:24:06.127Z,23.77
2022-12-20T05:26:44.946Z,22.90
2022-12-20T05:29:13.403Z,24.60
2022-12-20T05:31:41.385Z,21.13
2022-12-20T05:34:10.459Z,23.50
2022-12-20T05:36:40.039Z,23.83
2022-12-20T05:39:09.204Z,23.70
2022-12-20T05:41:41.550Z,27.73
2022-12-20T05:44:10.800Z,26.60
2022-12-20T05:46:42.717Z,26.40
2022-12-20T05:49:16.169Z,20.63
2022-12-20T05:51:44.157Z,22.80
2022-12-20T05:54:25.217Z,25.33
2022-12-20T05:57:01.485Z,26.87
2022-12-20T05:59:40.711Z,24.23
2022-12-20T06:02:15.588Z,21.63
2022-12-20T06:04:44.517Z,23.00
2022-12-20T06:07:17.505Z,21.93
2022-12-20T06:09:48.387Z,34.40
2022-12-20T06:12:18.786Z,21.47
2022-12-20T06:14:49.085Z,19.53
2022-12-20T06:17:20.058Z,25.17
2022-12-20T06:19:48.076Z,25.20
2022-12-20T06:22:17.887Z,23.70
2022-12-20T06:24:56.575Z,26.57
2022-12-20T06:27:28.532Z,26.70
2022-12-20T06:30:05.545Z,25.17
2022-12-20T06:32:44.990Z,27.40
2022-12-20T06:35:14.334Z,23.70
2022-12-20T06:37:43.250Z,25.70
2022-12-20T06:40:14.225Z,21.27
2022-12-20T06:42:42.302Z,24.33
2022-12-20T06:45:13.164Z,26.00
2022-12-20T06:47:41.331Z,22.77
2022-12-20T06:50:10.093Z,22.53
2022-12-20T06:52:37.910Z,23.43
2022-12-20T06:55:06.434Z,24.37
2022-12-20T06:57:37.470Z,28.40
2022-12-20T07:00:07.224Z,24.47
2022-12-20T07:02:36.594Z,27.27
2022-12-20T07:05:04.791Z,23.67
2022-12-20T07:07:33.759Z,25.27
2022-12-20T07:10:04.527Z,19.90
2022-12-20T07:12:33.301Z,22.47
2022-12-20T07:15:01.287Z,24.50
2022-12-20T07:17:29.133Z,22.40
2022-12-20T07:19:58.285Z,22.90
2022-12-20T07:22:26.085Z,20.40
2022-12-20T07:24:54.105Z,24.20
2022-12-20T07:27:22.143Z,25.17
2022-12-20T07:29:49.989Z,23.43
2022-12-20T07:32:18.033Z,39.30
2022-12-20T07:34:45.886Z,30.97
2022-12-20T07:37:15.117Z,36.47
2022-12-20T07:39:43.308Z,24.57
2022-12-20T07:42:12.399Z,28.70
2022-12-20T07:44:43.781Z,26.17
2022-12-20T07:47:11.713Z,24.60
2022-12-20T07:49:39.499Z,26.20
2022-12-20T07:52:12.173Z,24.47
2022-12-20T07:54:46.929Z,27.17
2022-12-20T07:57:19.738Z,26.20
2022-12-20T07:59:53.377Z,24.40
2022-12-20T08:02:24.902Z,18.90
2022-12-20T08:04:54.870Z,19.97
2022-12-20T08:07:23.127Z,24.70
2022-12-20T08:09:52.783Z,25.87
2022-12-20T08:12:21.666Z,20.27
2022-12-20T08:14:52.370Z,26.00
2022-12-20T08:17:20.309Z,22.07
2022-12-20T08:19:48.850Z,22.00
2022-12-20T08:22:16.751Z,20.93
2022-12-20T08:24:44.583Z,20.33
2022-12-20T08:27:13.982Z,22.27
2022-12-20T08:29:41.900Z,21.93
2022-12-20T08:32:10.129Z,20.73
2022-12-20T08:34:38.179Z,25.33
2022-12-20T08:37:10.734Z,23.30
2022-12-20T08:39:42.458Z,17.97
2022-12-20T08:42:10.250Z,25.27
2022-12-20T08:44:39.356Z,25.23
2022-12-20T08:47:07.291Z,20.83
2022-12-20T08:49:35.145Z,23.73
2022-12-20T08:52:03.037Z,24.17
2022-12-20T08:54:30.822Z,24.37
2022-12-20T08:56:58.751Z,29.33
2022-12-20T08:59:26.708Z,32.67
2022-12-20T09:01:55.950Z,28.60
2022-12-20T09:04:23.854Z,24.70
2022-12-20T09:06:51.763Z,26.83
2022-12-20T09:09:19.692Z,34.60
2022-12-20T09:11:47.628Z,29.80
2022-12-20T09:14:15.505Z,29.93
2022-12-20T09:16:43.262Z,23.83
2022-12-20T09:19:14.328Z,26.03
2022-12-20T09:21:42.615Z,26.70
2022-12-20T09:24:11.487Z,23.17
2022-12-20T09:26:40.815Z,25.93
2022-12-20T09:29:08.706Z,26.97
2022-12-20T09:31:37.019Z,26.30
2022-12-20T09:34:05.542Z,24.20
2022-12-20T09:36:34.817Z,26.83
2022-12-20T09:39:02.825Z,32.70
2022-12-20T09:41:34.685Z,25.23
2022-12-20T09:44:11.573Z,27.27
2022-12-20T09:46:40.360Z,22.17
2022-12-20T09:49:12.591Z,26.77
2022-12-20T09:51:57.495Z,22.97
2022-12-20T09:54:35.442Z,23.93
2022-12-20T09:57:08.970Z,23.50
2022-12-20T09:59:44.497Z,23.03
2022-12-20T10:02:54.449Z,20.50
2022-12-20T10:05:16.534Z,23.93
2022-12-20T10:07:54.977Z,21.30
2022-12-20T10:10:46.504Z,25.13
2022-12-20T10:13:37.930Z,25.63
2022-12-20T10:16:19.347Z,25.67
2022-12-20T10:18:58.374Z,27.03
2022-12-20T10:21:35.446Z,23.63
2022-12-20T10:24:11.249Z,27.13
2022-12-20T10:26:39.513Z,22.00
2022-12-20T10:29:07.669Z,24.70
2022-12-20T10:31:36.635Z,26.30
2022-12-20T10:34:04.523Z,22.70
2022-12-20T10:36:33.821Z,22.60
2022-12-20T10:39:03.191Z,24.90
2022-12-20T10:41:34.801Z,26.37
2022-12-20T10:44:05.013Z,22.70
2022-12-20T10:46:38.629Z,23.83
2022-12-20T10:49:31.616Z,30.47
2022-12-20T10:52:02.946Z,24.43
2022-12-20T10:54:35.403Z,23.40
2022-12-20T10:57:16.619Z,24.50
2022-12-20T10:59:49.112Z,20.10
2022-12-20T11:02:38.924Z,24.10
2022-12-20T11:05:23.740Z,24.30
2022-12-20T11:10:45.983Z,24.80
2022-12-20T11:13:25.736Z,25.23
2022-12-20T11:15:57.829Z,24.43
2022-12-20T11:18:38.790Z,20.63
2022-12-20T11:21:27.389Z,23.73
2022-12-20T11:24:03.545Z,25.20
2022-12-20T11:26:43.650Z,22.20
2022-12-20T11:29:26.184Z,23.30
2022-12-20T11:32:02.565Z,24.23
2022-12-20T11:34:40.190Z,19.90
2022-12-20T11:37:19.187Z,24.00
2022-12-20T11:40:01.748Z,22.83
2022-12-20T11:42:38.875Z,22.63
2022-12-20T11:45:16.473Z,21.53
2022-12-20T11:48:05.411Z,23.80
2022-12-20T11:50:47.506Z,25.27
2022-12-20T11:53:24.010Z,24.97
2022-12-20T11:55:55.430Z,26.13
2022-12-20T11:58:27.958Z,25.17
2022-12-20T12:01:01.967Z,48.77
2022-12-20T12:03:35.129Z,29.63
2022-12-20T12:06:06.339Z,28.97
2022-12-20T12:08:49.139Z,25.57
2022-12-20T12:11:56.165Z,39.17
2022-12-20T12:14:18.788Z,26.97
2022-12-20T12:16:53.432Z,26.03
2022-12-20T12:19:22.346Z,25.97
2022-12-20T12:21:58.201Z,31.87
2022-12-20T12:24:30.484Z,27.97
2022-12-20T12:27:00.395Z,26.73
2022-12-20T12:29:30.737Z,17.07
2022-12-20T12:32:05.793Z,24.60
2022-12-20T12:34:58.433Z,20.27
2022-12-20T12:37:49.734Z,22.60
2022-12-20T12:40:34.856Z,22.50
2022-12-20T12:43:23.792Z,18.90
2022-12-20T12:45:57.466Z,19.77
2022-12-20T12:48:36.699Z,25.20
2022-12-20T12:51:06.017Z,21.13
2022-12-20T12:53:38.377Z,18.80
2022-12-20T12:56:46.724Z,22.90
2022-12-20T12:59:25.511Z,22.90
2022-12-20T13:01:55.770Z,17.63
2022-12-20T13:04:29.301Z,18.87
2022-12-20T13:07:00.083Z,23.93
2022-12-20T13:09:42.414Z,21.13
2022-12-20T13:12:51.329Z,22.80
2022-12-20T13:15:51.912Z,22.47
2022-12-20T13:18:30.243Z,20.93
2022-12-20T13:21:28.398Z,23.40
2022-12-20T13:24:38.740Z,20.23
2022-12-20T13:27:27.731Z,23.73
2022-12-20T13:30:18.866Z,25.70
2022-12-20T13:33:23.864Z,23.67
2022-12-20T13:36:03.695Z,20.97
2022-12-20T13:38:57.712Z,23.33
2022-12-20T13:41:38.771Z,22.87
2022-12-20T13:44:40.710Z,24.43
2022-12-20T13:47:35.270Z,27.70
2022-12-20T13:50:22.722Z,19.20
2022-12-20T13:52:50.698Z,21.80
2022-12-20T13:55:27.783Z,22.60
2022-12-20T13:57:56.052Z,19.97
2022-12-20T14:00:27.213Z,19.73
2022-12-20T14:02:55.866Z,27.37
2022-12-20T14:05:26.526Z,21.20
2022-12-20T14:08:00.411Z,22.37
2022-12-20T14:10:31.332Z,20.67
2022-12-20T14:12:59.227Z,22.33
2022-12-20T14:15:30.226Z,26.73
2022-12-20T14:17:58.848Z,26.00
2022-12-20T14:20:32.267Z,40.60
2022-12-20T14:23:06.298Z,48.77
2022-12-20T14:25:44.248Z,41.60
2022-12-20T14:28:27.640Z,39.60
2022-12-20T14:30:57.290Z,35.10
2022-12-20T14:33:31.187Z,30.30
2022-12-20T14:36:08.274Z,30.57
2022-12-20T14:38:36.127Z,25.50
2022-12-20T14:41:05.527Z,25.33
2022-12-20T14:43:35.928Z,30.23
2022-12-20T14:46:18.546Z,24.97
2022-12-20T14:48:47.227Z,39.20
2022-12-20T14:51:21.472Z,40.07
2022-12-20T14:53:53.178Z,38.50
2022-12-20T14:56:31.390Z,32.77
2022-12-20T14:59:14.567Z,52.57
2022-12-20T15:01:44.415Z,48.03
2022-12-20T15:04:24.046Z,58.10
2022-12-20T15:06:53.232Z,39.83
2022-12-20T15:09:21.634Z,32.90
2022-12-20T15:11:52.548Z,29.43
2022-12-20T15:14:32.914Z,28.83
2022-12-20T15:17:00.885Z,23.10
2022-12-20T15:19:28.806Z,26.60
2022-12-20T15:21:56.763Z,38.93
2022-12-20T15:24:26.512Z,39.03
2022-12-20T15:26:56.495Z,41.87
2022-12-20T15:29:26.657Z,37.10
2022-12-20T15:32:01.127Z,27.53
2022-12-20T15:34:33.711Z,25.83
2022-12-20T15:37:02.630Z,24.53
2022-12-20T15:39:31.032Z,18.10
2022-12-20T15:42:03.884Z,24.97
2022-12-20T15:44:32.968Z,27.53
2022-12-20T15:47:00.904Z,22.63
2022-12-20T15:49:31.329Z,23.90
2022-12-20T15:51:59.854Z,22.00
2022-12-20T15:54:30.947Z,21.90
2022-12-20T15:57:03.350Z,23.93
2022-12-20T15:59:58.867Z,20.10
2022-12-20T16:02:23.310Z,18.47
2022-12-20T16:04:52.339Z,19.90
2022-12-20T16:07:20.692Z,21.70
2022-12-20T16:09:48.894Z,21.00
2022-12-20T16:12:22.323Z,22.70
2022-12-20T16:14:51.401Z,22.60
2022-12-20T16:17:19.378Z,24.20
2022-12-20T16:19:48.257Z,27.20
2022-12-20T16:22:18.498Z,23.73
2022-12-20T16:24:47.249Z,22.60
2022-12-20T16:27:15.341Z,31.73
2022-12-20T16:29:45.403Z,28.40
2022-12-20T16:32:16.406Z,25.33
2022-12-20T16:34:45.342Z,24.43
2022-12-20T16:37:13.628Z,21.57
2022-12-20T16:39:42.252Z,23.87
2022-12-20T16:42:15.052Z,23.30
2022-12-20T16:44:46.138Z,24.10
2022-12-20T16:47:15.130Z,22.07
2022-12-20T16:49:51.777Z,27.73
2022-12-20T16:52:21.754Z,21.33
2022-12-20T16:54:49.917Z,27.27
2022-12-20T16:57:17.981Z,33.60
2022-12-20T16:59:47.188Z,25.70
2022-12-20T17:02:26.898Z,31.67
2022-12-20T17:04:55.053Z,36.77
2022-12-20T17:07:22.879Z,32.60
2022-12-20T17:09:50.845Z,28.30
2022-12-20T17:12:21.125Z,23.10
2022-12-20T17:14:50.480Z,24.33
2022-12-20T17:17:18.476Z,25.43
2022-12-20T17:19:46.323Z,19.33
2022-12-20T17:22:23.775Z,25.23
2022-12-20T17:24:51.773Z,26.37
2022-12-20T17:27:19.655Z,21.27
2022-12-20T17:29:47.464Z,20.87
2022-12-20T17:32:21.817Z,21.57
2022-12-20T17:34:50.101Z,26.33
2022-12-20T17:37:18.219Z,22.93
2022-12-20T17:39:46.245Z,22.90
2022-12-20T17:42:14.770Z,33.73
2022-12-20T17:44:42.651Z,45.50
2022-12-20T17:47:11.632Z,47.80
2022-12-20T17:49:41.120Z,50.37
2022-12-20T17:52:13.692Z,34.87
2022-12-20T17:54:41.605Z,28.43
2022-12-20T17:57:14.613Z,24.33
2022-12-20T17:59:42.599Z,21.83
2022-12-20T18:02:21.001Z,21.33
2022-12-20T18:04:51.051Z,21.73
2022-12-20T18:07:18.999Z,20.70
2022-12-20T18:09:47.816Z,23.47
2022-12-20T18:12:15.689Z,20.70
2022-12-20T18:14:43.599Z,24.17
2022-12-20T18:17:11.879Z,23.77
2022-12-20T18:19:40.525Z,25.63
2022-12-20T18:22:09.794Z,25.27
2022-12-20T18:24:37.682Z,23.47
2022-12-20T18:27:05.596Z,24.33
2022-12-20T18:29:33.728Z,27.33
2022-12-20T18:32:01.691Z,25.57
2022-12-20T18:34:29.799Z,22.80
2022-12-20T18:36:57.726Z,23.93
2022-12-20T18:39:26.900Z,19.73
2022-12-20T18:41:54.699Z,19.97
2022-12-20T18:44:22.611Z,18.83
2022-12-20T18:46:50.437Z,18.50
2022-12-20T18:49:18.313Z,19.57
2022-12-20T18:51:46.218Z,22.73
2022-12-20T18:54:14.918Z,20.50
2022-12-20T18:56:44.112Z,19.33
2022-12-20T18:59:13.111Z,18.30
2022-12-20T19:01:42.495Z,24.53
2022-12-20T19:04:11.827Z,21.27
2022-12-20T19:06:40.094Z,21.77
2022-12-20T19:09:11.135Z,24.23
2022-12-20T19:11:39.293Z,17.60
2022-12-20T19:14:08.717Z,18.47
2022-12-20T19:16:39.551Z,19.73
2022-12-20T19:19:09.195Z,23.23
2022-12-20T19:21:38.828Z,20.00
2022-12-20T19:24:07.991Z,20.57
2022-12-20T19:26:37.792Z,21.40
2022-12-20T19:29:08.030Z,20.80
2022-12-20T19:31:37.604Z,19.10
2022-12-20T19:34:08.328Z,18.43
2022-12-20T19:36:39.136Z,18.73
2022-12-20T19:39:08.987Z,25.03
2022-12-20T19:41:36.996Z,18.63
2022-12-20T19:44:06.090Z,19.60
2022-12-20T19:46:36.201Z,21.60
2022-12-20T19:49:04.471Z,18.70
2022-12-20T19:51:32.696Z,21.30
2022-12-20T19:54:00.951Z,19.37
2022-12-20T19:56:31.503Z,18.97
2022-12-20T19:58:59.362Z,18.13
2022-12-20T20:01:28.234Z,23.77
2022-12-20T20:04:00.035Z,20.47
2022-12-20T20:06:29.091Z,23.53
2022-12-20T20:08:59.528Z,21.60
2022-12-20T20:11:28.943Z,17.97
2022-12-20T20:13:57.049Z,18.93
2022-12-20T20:16:25.103Z,21.80
2022-12-20T20:18:53.547Z,20.20
2022-12-20T20:21:24.315Z,23.30
2022-12-20T20:23:53.365Z,19.83
2022-12-20T20:26:23.004Z,21.77
2022-12-20T20:28:51.317Z,21.10
2022-12-20T20:31:20.737Z,20.67
2022-12-20T20:33:49.373Z,26.03
2022-12-20T20:36:19.320Z,54.77
2022-12-20T20:38:49.532Z,28.10
2022-12-20T20:41:17.945Z,28.20
2022-12-20T20:43:46.013Z,19.37
2022-12-20T20:46:16.209Z,23.83
2022-12-20T20:48:45.276Z,21.87
2022-12-20T20:51:13.617Z,21.80
2022-12-20T20:53:42.104Z,21.50
2022-12-20T20:56:11.746Z,26.33
2022-12-20T20:58:39.904Z,19.50
2022-12-20T21:01:09.791Z,19.17
2022-12-20T21:03:38.346Z,21.00
2022-12-20T21:06:38.701Z,19.90
2022-12-20T21:08:55.616Z,22.03
2022-12-20T21:11:25.538Z,22.37
2022-12-20T21:13:54.658Z,20.17
2022-12-20T21:16:24.500Z,24.13
2022-12-20T21:18:52.978Z,19.93
2022-12-20T21:21:21.642Z,20.50
2022-12-20T21:23:49.869Z,21.20
2022-12-20T21:26:19.688Z,21.70
2022-12-20T21:28:49.313Z,20.40
2022-12-20T21:31:18.702Z,20.50
2022-12-20T21:33:47.004Z,21.33
2022-12-20T21:36:20.333Z,25.13
2022-12-20T21:38:50.291Z,22.13
2022-12-20T21:41:20.217Z,21.97
2022-12-20T21:43:49.439Z,22.30
2022-12-20T21:46:17.276Z,19.17
2022-12-20T21:48:46.903Z,23.47
2022-12-20T21:51:16.714Z,24.37
2022-12-20T21:53:46.645Z,21.43
2022-12-20T21:56:15.768Z,23.00
2022-12-20T21:58:43.900Z,19.50
2022-12-20T22:01:15.773Z,22.43
2022-12-20T22:03:44.670Z,32.13
2022-12-20T22:06:13.176Z,27.40
2022-12-20T22:08:41.003Z,21.80
2022-12-20T22:11:10.912Z,31.07
2022-12-20T22:13:41.922Z,32.10
2022-12-20T22:16:12.000Z,23.37
2022-12-20T22:18:42.137Z,20.87
2022-12-20T22:21:12.273Z,21.37
2022-12-20T22:23:40.581Z,21.07
2022-12-20T22:26:10.688Z,22.13
2022-12-20T22:28:40.968Z,21.93
2022-12-20T22:31:09.765Z,25.10
2022-12-20T22:33:38.150Z,24.13
2022-12-20T22:36:09.188Z,33.50
2022-12-20T22:38:37.073Z,27.00
2022-12-20T22:41:09.485Z,27.10
2022-12-20T22:43:37.823Z,26.40
2022-12-20T22:46:06.585Z,29.60
2022-12-20T22:48:34.846Z,29.23
2022-12-20T22:51:04.655Z,24.90
2022-12-20T22:53:34.684Z,21.80
2022-12-20T22:56:02.650Z,23.80
2022-12-20T22:58:31.352Z,26.87
2022-12-20T23:01:00.537Z,29.27
2022-12-20T23:03:30.041Z,25.43
2022-12-20T23:05:59.487Z,26.93
2022-12-20T23:08:28.898Z,25.80
2022-12-20T23:11:15.667Z,30.50
2022-12-20T23:14:01.871Z,25.00
2022-12-20T23:16:30.163Z,24.33
2022-12-20T23:18:59.053Z,26.17
2022-12-20T23:21:45.177Z,26.67
2022-12-20T23:24:14.667Z,24.00
2022-12-20T23:26:44.076Z,23.33
2022-12-20T23:29:14.234Z,28.00
2022-12-20T23:31:42.304Z,26.80
2022-12-20T23:34:10.189Z,24.70
2022-12-20T23:36:38.631Z,27.73
2022-12-20T23:39:06.806Z,29.83
2022-12-20T23:41:35.045Z,32.70
2022-12-20T23:44:06.033Z,29.20
2022-12-20T23:46:34.638Z,23.80
2022-12-20T23:49:02.642Z,24.17
2022-12-20T23:51:30.510Z,28.10
2022-12-20T23:53:58.306Z,26.80
2022-12-20T23:56:26.094Z,27.87
2022-12-20T23:58:55.699Z,28.50
